createdAt,value
2023-04-05T00:00:15.630Z,6.40
2023-04-05T00:04:21.029Z,5.43
2023-04-05T00:08:26.610Z,4.93
2023-04-05T00:12:29.299Z,6.17
2023-04-05T00:16:34.419Z,3.90
2023-04-05T00:20:37.436Z,3.90
2023-04-05T00:24:41.980Z,3.93
2023-04-05T00:28:44.708Z,4.13
2023-04-05T00:32:50.662Z,5.13
2023-04-05T00:36:53.312Z,6.97
2023-04-05T00:40:56.063Z,5.40
2023-04-05T00:44:58.696Z,5.37
2023-04-05T00:49:03.066Z,4.20
2023-04-05T00:53:06.060Z,5.73
2023-04-05T00:57:09.234Z,4.50
2023-04-05T01:01:14.676Z,4.80
2023-04-05T01:05:26.982Z,6.07
2023-04-05T01:09:37.200Z,3.90
2023-04-05T01:13:40.163Z,5.83
2023-04-05T01:17:43.356Z,4.03
2023-04-05T01:22:14.051Z,5.53
2023-04-05T01:26:33.601Z,4.97
2023-04-05T01:30:39.354Z,6.20
2023-04-05T01:34:49.521Z,5.37
2023-04-05T01:38:52.824Z,4.70
2023-04-05T01:42:55.586Z,4.97
2023-04-05T01:46:59.873Z,4.13
2023-04-05T01:51:02.831Z,5.20
2023-04-05T01:55:06.046Z,4.50
2023-04-05T01:59:08.871Z,3.90
2023-04-05T02:03:13.295Z,4.00
2023-04-05T02:07:16.016Z,5.10
2023-04-05T02:11:18.712Z,4.40
2023-04-05T02:15:21.371Z,4.10
2023-04-05T02:19:26.121Z,3.87
2023-04-05T02:23:30.562Z,5.83
2023-04-05T02:27:33.560Z,3.63
2023-04-05T02:31:36.492Z,5.07
2023-04-05T02:35:40.770Z,4.27
2023-04-05T02:39:43.491Z,4.60
2023-04-05T02:43:46.399Z,3.83
2023-04-05T02:47:49.179Z,4.70
2023-04-05T02:51:53.528Z,3.77
2023-04-05T02:55:57.249Z,3.17
2023-04-05T02:59:59.889Z,3.77
2023-04-05T03:04:02.618Z,5.33
2023-04-05T03:08:07.277Z,4.53
2023-04-05T03:12:10.233Z,5.30
2023-04-05T03:16:12.936Z,4.50
2023-04-05T03:20:15.660Z,6.47
2023-04-05T03:24:19.964Z,3.43
2023-04-05T03:28:23.538Z,4.97
2023-04-05T03:32:26.676Z,4.40
2023-04-05T03:36:30.560Z,5.57
2023-04-05T03:40:34.626Z,3.77
2023-04-05T03:44:37.494Z,3.33
2023-04-05T03:48:40.387Z,3.63
2023-04-05T03:52:43.325Z,5.47
2023-04-05T03:56:47.589Z,4.40
2023-04-05T04:00:50.451Z,4.43
2023-04-05T04:04:53.686Z,3.33
2023-04-05T04:08:57.010Z,3.77
2023-04-05T04:13:01.322Z,5.83
2023-04-05T04:17:03.936Z,8.03
2023-04-05T04:21:07.943Z,8.17
2023-04-05T04:25:12.747Z,5.57
2023-04-05T04:29:17.283Z,5.33
2023-04-05T04:33:20.199Z,5.30
2023-04-05T04:37:30.151Z,3.90
2023-04-05T04:41:34.026Z,5.43
2023-04-05T04:45:38.671Z,4.23
2023-04-05T04:49:41.486Z,4.93
2023-04-05T04:53:44.122Z,4.50
2023-04-05T04:57:47.048Z,13.50
2023-04-05T05:01:51.121Z,11.17
2023-04-05T05:05:54.432Z,6.73
2023-04-05T05:09:57.156Z,4.80
2023-04-05T05:14:00.127Z,4.23
2023-04-05T05:18:04.530Z,4.47
2023-04-05T05:22:07.512Z,3.53
2023-04-05T05:26:10.322Z,8.20
2023-04-05T05:30:17.282Z,3.67
2023-04-05T05:34:21.968Z,3.30
2023-04-05T05:38:25.248Z,3.83
2023-04-05T05:42:28.149Z,3.00
2023-04-05T05:46:31.035Z,4.07
2023-04-05T05:50:36.830Z,5.07
2023-04-05T05:54:39.535Z,3.73
2023-04-05T05:58:44.233Z,4.57
2023-04-05T06:02:47.254Z,5.50
2023-04-05T06:06:51.653Z,6.20
2023-04-05T06:10:54.673Z,3.23
2023-04-05T06:14:57.659Z,4.13
2023-04-05T06:19:00.373Z,4.73
2023-04-05T06:23:04.398Z,4.13
2023-04-05T06:27:07.071Z,4.20
2023-04-05T06:31:11.455Z,3.87
2023-04-05T06:35:14.318Z,4.43
2023-04-05T06:39:18.669Z,5.30
2023-04-05T06:43:24.368Z,5.23
2023-04-05T06:47:27.304Z,5.37
2023-04-05T06:51:30.120Z,4.83
2023-04-05T06:55:36.263Z,4.17
2023-04-05T06:59:38.854Z,3.80
2023-04-05T07:03:41.507Z,5.07
2023-04-05T07:07:45.513Z,3.70
2023-04-05T07:11:49.999Z,4.10
2023-04-05T07:15:53.148Z,6.10
2023-04-05T07:19:55.895Z,5.30
2023-04-05T07:24:00.815Z,8.07
2023-04-05T07:28:06.490Z,5.67
2023-04-05T07:32:09.298Z,5.80
2023-04-05T07:36:12.050Z,6.43
2023-04-05T07:40:14.918Z,5.40
2023-04-05T07:44:19.189Z,4.17
2023-04-05T07:48:22.090Z,5.03
2023-04-05T07:52:24.792Z,9.10
2023-04-05T07:56:27.733Z,5.67
2023-04-05T08:00:31.801Z,6.47
2023-04-05T08:04:34.470Z,6.60
2023-04-05T08:08:38.392Z,5.80
2023-04-05T08:12:41.104Z,6.07
2023-04-05T08:16:45.899Z,5.17
2023-04-05T08:20:52.450Z,7.97
2023-04-05T08:24:55.353Z,4.13
2023-04-05T08:29:00.125Z,4.13
2023-04-05T08:33:04.805Z,3.87
2023-04-05T08:37:07.649Z,5.27
2023-04-05T08:41:15.962Z,3.90
2023-04-05T08:45:22.504Z,4.27
2023-04-05T08:49:26.769Z,4.77
2023-04-05T08:53:29.829Z,4.97
2023-04-05T08:57:33.059Z,3.83
2023-04-05T09:01:39.550Z,3.43
2023-04-05T09:05:46.451Z,4.23
2023-04-05T09:09:52.317Z,3.63
2023-04-05T09:13:55.251Z,3.60
2023-04-05T09:17:58.247Z,3.50
2023-04-05T09:22:04.478Z,3.40
2023-04-05T09:26:19.304Z,3.17
2023-04-05T09:30:22.985Z,3.10
2023-04-05T09:34:25.647Z,3.30
2023-04-05T09:43:01.673Z,3.40
2023-04-05T09:47:16.327Z,3.63
2023-04-05T09:51:19.978Z,4.27
2023-04-05T09:55:29.578Z,3.13
2023-04-05T09:59:35.432Z,3.90
2023-04-05T10:03:47.564Z,2.90
2023-04-05T10:07:50.474Z,3.63
2023-04-05T10:11:53.172Z,4.87
2023-04-05T10:15:58.718Z,3.80
2023-04-05T10:20:11.038Z,4.03
2023-04-05T10:24:20.211Z,3.87
2023-04-05T10:28:30.354Z,4.37
2023-04-05T10:32:43.538Z,4.27
2023-04-05T10:36:51.102Z,2.57
2023-04-05T10:40:56.323Z,4.67
2023-04-05T10:45:01.278Z,2.93
2023-04-05T10:49:08.655Z,3.10
2023-04-05T10:53:11.877Z,4.60
2023-04-05T10:57:19.382Z,3.47
2023-04-05T11:01:22.955Z,2.67
2023-04-05T11:05:34.330Z,2.80
2023-04-05T11:09:37.283Z,2.50
2023-04-05T11:13:50.285Z,4.63
2023-04-05T11:18:04.210Z,3.67
2023-04-05T11:22:08.505Z,2.90
2023-04-05T11:26:11.215Z,2.50
2023-04-05T11:30:14.681Z,5.77
2023-04-05T11:34:25.449Z,3.20
2023-04-05T11:38:29.902Z,3.30
2023-04-05T11:42:34.690Z,3.27
2023-04-05T11:46:37.398Z,3.17
2023-04-05T11:50:42.724Z,2.80
2023-04-05T11:54:48.924Z,3.17
2023-04-05T11:58:51.942Z,3.60
2023-04-05T12:02:57.005Z,2.83
2023-04-05T12:07:25.491Z,3.83
2023-04-05T12:11:31.163Z,2.73
2023-04-05T12:15:39.104Z,2.87
2023-04-05T12:19:43.253Z,3.10
2023-04-05T12:23:46.191Z,2.93
2023-04-05T12:27:50.519Z,3.00
2023-04-05T12:31:53.354Z,3.40
2023-04-05T12:35:56.271Z,4.57
2023-04-05T12:39:59.247Z,3.23
2023-04-05T12:44:06.416Z,3.90
2023-04-05T12:48:10.917Z,3.73
2023-04-05T12:52:21.888Z,4.20
2023-04-05T12:56:24.630Z,3.20
2023-04-05T13:00:30.872Z,3.63
2023-04-05T13:04:33.830Z,3.13
2023-04-05T13:08:37.237Z,3.27
2023-04-05T13:12:40.238Z,4.70
2023-04-05T13:16:44.291Z,4.70
2023-04-05T13:20:47.402Z,3.17
2023-04-05T13:24:52.109Z,3.67
2023-04-05T13:28:54.784Z,3.67
2023-04-05T13:32:58.959Z,3.57
2023-04-05T13:37:01.910Z,5.10
2023-04-05T13:41:05.318Z,4.40
2023-04-05T13:45:09.066Z,2.60
2023-04-05T13:49:16.750Z,2.60
2023-04-05T13:53:19.454Z,3.37
2023-04-05T13:57:22.504Z,5.50
2023-04-05T14:01:25.549Z,4.53
2023-04-05T14:05:30.000Z,4.50
2023-04-05T14:09:32.743Z,6.80
2023-04-05T14:13:39.821Z,2.60
2023-04-05T14:17:45.871Z,2.97
2023-04-05T14:21:50.429Z,9.57
2023-04-05T14:25:53.222Z,5.23
2023-04-05T14:29:58.728Z,3.00
2023-04-05T14:34:01.486Z,2.50
2023-04-05T14:38:05.624Z,3.30
2023-04-05T14:42:10.008Z,3.23
2023-04-05T14:46:12.817Z,3.27
2023-04-05T14:50:16.018Z,3.40
2023-04-05T14:54:20.246Z,3.40
2023-04-05T14:58:23.013Z,2.97
2023-04-05T15:02:26.778Z,2.60
2023-04-05T15:06:29.538Z,2.60
2023-04-05T15:10:34.313Z,5.77
2023-04-05T15:14:37.186Z,3.53
2023-04-05T15:18:40.297Z,2.87
2023-04-05T15:22:45.644Z,2.97
2023-04-05T15:26:51.968Z,3.17
2023-04-05T15:30:54.801Z,3.13
2023-04-05T15:34:57.961Z,2.87
2023-04-05T15:39:00.730Z,4.23
2023-04-05T15:43:05.241Z,3.50
2023-04-05T15:47:10.789Z,3.47
2023-04-05T15:51:13.977Z,3.27
2023-04-05T15:55:16.749Z,3.17
2023-04-05T15:59:21.275Z,3.97
2023-04-05T16:03:24.219Z,3.60
2023-04-05T16:07:27.053Z,5.13
2023-04-05T16:11:30.110Z,5.53
2023-04-05T16:15:34.197Z,3.33
2023-04-05T16:19:37.023Z,3.40
2023-04-05T16:23:39.770Z,5.67
2023-04-05T16:27:44.169Z,3.57
2023-04-05T16:31:48.622Z,3.13
2023-04-05T16:35:51.500Z,3.23
2023-04-05T16:39:55.241Z,4.87
2023-04-05T16:43:58.051Z,2.73
2023-04-05T16:48:02.319Z,6.10
2023-04-05T16:52:05.409Z,3.50
2023-04-05T16:56:08.675Z,3.80
2023-04-05T17:00:12.511Z,6.07
2023-04-05T17:04:16.638Z,3.30
2023-04-05T17:08:19.386Z,3.07
2023-04-05T17:12:24.756Z,3.60
2023-04-05T17:16:27.777Z,4.03
2023-04-05T17:20:31.952Z,3.83
2023-04-05T17:24:36.012Z,3.27
2023-04-05T17:28:38.830Z,2.70
2023-04-05T17:32:41.705Z,2.57
2023-04-05T17:36:46.605Z,4.43
2023-04-05T17:40:49.474Z,3.47
2023-04-05T17:44:54.364Z,4.53
2023-04-05T17:48:58.936Z,11.43
2023-04-05T17:53:03.603Z,11.07
2023-04-05T17:57:09.421Z,11.40
2023-04-05T18:01:13.997Z,5.38
2023-04-05T18:05:17.469Z,8.07
2023-04-05T18:09:21.871Z,3.23
2023-04-05T18:13:29.372Z,5.47
2023-04-05T18:17:37.141Z,3.72
2023-04-05T18:21:41.396Z,6.57
2023-04-05T18:25:46.610Z,9.40
2023-04-05T18:29:49.883Z,9.93
2023-04-05T18:33:52.665Z,7.83
2023-04-05T18:37:55.408Z,5.20
2023-04-05T18:41:59.989Z,4.73
2023-04-05T18:46:04.420Z,10.07
2023-04-05T18:50:09.968Z,8.73
2023-04-05T18:54:13.933Z,6.90
2023-04-05T18:58:19.139Z,5.23
2023-04-05T19:02:22.009Z,5.47
2023-04-05T19:06:24.978Z,5.20
2023-04-05T19:10:28.173Z,5.37
2023-04-05T19:14:32.359Z,4.37
2023-04-05T19:18:35.281Z,3.50
2023-04-05T19:22:38.121Z,4.80
2023-04-05T19:26:41.845Z,7.40
2023-04-05T19:30:47.716Z,4.90
2023-04-05T19:34:50.493Z,5.03
2023-04-05T19:38:53.253Z,4.93
2023-04-05T19:42:56.939Z,17.53
2023-04-05T19:47:02.262Z,14.40
2023-04-05T19:51:06.790Z,8.80
2023-04-05T19:55:27.479Z,15.70
2023-04-05T19:59:31.497Z,9.43
2023-04-05T20:03:37.439Z,12.97
2023-04-05T20:07:40.575Z,22.93
2023-04-05T20:11:44.719Z,23.87
2023-04-05T20:15:49.645Z,22.53
2023-04-05T20:20:00.757Z,12.03
2023-04-05T20:24:03.963Z,7.70
2023-04-05T20:28:09.201Z,8.17
2023-04-05T20:32:11.921Z,13.40
2023-04-05T20:36:18.378Z,12.10
2023-04-05T20:40:21.226Z,7.77
2023-04-05T20:44:24.475Z,5.73
2023-04-05T20:48:27.259Z,6.67
2023-04-05T20:52:31.400Z,6.60
2023-04-05T20:56:34.152Z,5.53
2023-04-05T21:00:39.563Z,8.50
2023-04-05T21:04:42.609Z,5.17
2023-04-05T21:08:46.753Z,5.17
2023-04-05T21:12:49.423Z,5.87
2023-04-05T21:16:52.170Z,4.27
2023-04-05T21:20:55.652Z,5.50
2023-04-05T21:24:59.773Z,5.67
2023-04-05T21:29:02.514Z,4.07
2023-04-05T21:33:05.394Z,5.00
2023-04-05T21:37:08.404Z,6.67
2023-04-05T21:41:12.839Z,5.37
2023-04-05T21:45:15.606Z,6.50
2023-04-05T21:49:18.355Z,6.23
2023-04-05T21:53:21.140Z,5.33
2023-04-05T21:57:25.365Z,6.60
2023-04-05T22:01:31.130Z,6.67
2023-04-05T22:05:38.159Z,6.87
2023-04-05T22:09:41.797Z,6.50
2023-04-05T22:13:46.123Z,5.83
2023-04-05T22:17:48.959Z,6.27
2023-04-05T22:21:55.017Z,4.60
2023-04-05T22:25:57.790Z,6.00
2023-04-05T22:30:02.909Z,5.70
2023-04-05T22:34:06.445Z,5.10
2023-04-05T22:38:09.533Z,5.27
2023-04-05T22:42:12.539Z,6.20
2023-04-05T22:46:16.933Z,6.30
2023-04-05T22:50:19.804Z,6.27
2023-04-05T22:54:25.008Z,6.97
2023-04-05T22:58:29.653Z,5.90
2023-04-05T23:02:34.037Z,6.83
2023-04-05T23:06:37.022Z,6.23
2023-04-05T23:10:39.758Z,7.07
2023-04-05T23:14:42.802Z,7.17
2023-04-05T23:18:49.077Z,6.07
2023-04-05T23:22:51.898Z,6.57
2023-04-05T23:26:54.683Z,4.40
2023-04-05T23:30:59.328Z,5.00
2023-04-05T23:35:03.962Z,5.40
2023-04-05T23:39:07.024Z,3.80
2023-04-05T23:43:09.954Z,5.17
2023-04-05T23:47:12.951Z,4.30
2023-04-05T23:51:17.033Z,5.43
2023-04-05T23:55:21.447Z,5.57
2023-04-05T23:59:24.531Z,6.07
